Time;durP1;ratioP1;P1;durP2;ratioP2;P2;SDS_P1;SDS_P2;PMS_P1;PMS_P2;Temp;Humidity;BMP_temperature;BMP_pressure;BME280_temperature;BME280_humidity;BME280_pressure;Samples;Min_cycle;Max_cycle;Signal;HPM_P1;HPM_P2
2022/05/29 00:01:31;;;;;;;9.33;2.80;;;;;;;20.67;nan;100964.22;5015883;28;20443;-85
2022/05/29 00:03:59;;;;;;;10.30;3.40;;;;;;;20.74;nan;100972.38;5032447;28;20451;-85
2022/05/29 00:06:27;;;;;;;7.60;2.63;;;;;;;20.76;nan;100977.69;5015893;28;20460;-86
2022/05/29 00:08:55;;;;;;;6.30;2.30;;;;;;;20.79;nan;100968.81;5041429;28;20539;-86
2022/05/29 00:11:22;;;;;;;12.80;3.13;;;;;;;20.79;nan;100964.09;5036799;28;20457;-86
2022/05/29 00:13:50;;;;;;;10.33;2.10;;;;;;;20.77;nan;100959.91;5036635;28;20459;-86
2022/05/29 00:16:19;;;;;;;10.87;2.60;;;;;;;20.75;nan;100962.09;5036316;28;20454;-85
2022/05/29 00:18:47;;;;;;;12.00;2.47;;;;;;;20.85;nan;100967.78;5036917;28;20450;-86
2022/05/29 00:21:14;;;;;;;10.93;1.97;;;;;;;20.83;nan;100975.53;5052723;28;20480;-85
2022/05/29 00:23:43;;;;;;;10.10;2.43;;;;;;;20.84;nan;100968.88;5036452;28;20450;-85
2022/05/29 00:26:10;;;;;;;12.37;2.40;;;;;;;20.82;nan;100969.13;5019946;28;20469;-86
2022/05/29 00:28:39;;;;;;;5.77;2.20;;;;;;;20.81;nan;100967.44;5035982;28;20482;-86
2022/05/29 00:31:07;;;;;;;7.40;2.23;;;;;;;20.83;nan;100959.72;5036470;28;20469;-85
2022/05/29 00:33:35;;;;;;;9.77;2.10;;;;;;;20.80;nan;100962.16;5036211;28;20450;-85
2022/05/29 00:36:02;;;;;;;8.53;2.20;;;;;;;20.82;nan;100959.97;5036272;28;20446;-86
2022/05/29 00:38:31;;;;;;;6.00;2.00;;;;;;;20.84;nan;100960.53;5019888;28;20457;-86
2022/05/29 00:41:24;;;;;;;11.77;2.40;;;;;;;20.81;nan;100955.50;5052370;28;20450;-86
2022/05/29 00:44:12;;;;;;;6.97;2.13;;;;;;;20.79;nan;100952.97;5052347;28;20446;-86
2022/05/29 00:46:50;;;;;;;4.20;1.73;;;;;;;20.77;nan;100949.63;5052278;28;20447;-86
2022/05/29 00:49:20;;;;;;;10.00;2.10;;;;;;;20.73;nan;100950.41;5052299;28;20484;-86
2022/05/29 00:52:19;;;;;;;4.03;1.63;;;;;;;20.75;nan;100962.09;5052010;28;20462;-85
2022/05/29 00:54:49;;;;;;;8.90;2.00;;;;;;;20.76;nan;100969.34;5052181;28;20519;-87
2022/05/29 00:57:18;;;;;;;9.43;2.37;;;;;;;20.74;nan;100954.84;5053643;28;20446;-86
2022/05/29 00:59:46;;;;;;;10.93;2.00;;;;;;;20.74;nan;100949.31;5035670;28;20799;-86
2022/05/29 01:02:14;;;;;;;11.47;2.73;;;;;;;20.75;nan;100945.44;5035864;28;20457;-86
2022/05/29 01:04:42;;;;;;;9.33;2.03;;;;;;;20.71;nan;100949.81;5035674;28;20465;-85
2022/05/29 01:07:11;;;;;;;9.17;2.40;;;;;;;20.73;nan;100953.19;5051919;28;20511;-86
2022/05/29 01:09:41;;;;;;;7.20;2.10;;;;;;;20.73;nan;100947.63;5035479;28;20486;-85
2022/05/29 01:12:36;;;;;;;9.43;2.80;;;;;;;20.72;nan;100951.50;5035694;28;20439;-86
2022/05/29 01:15:19;;;;;;;9.87;2.40;;;;;;;20.67;nan;100941.16;5051934;28;20936;-86
2022/05/29 01:18:19;;;;;;;14.17;2.93;;;;;;;20.71;nan;100938.69;5051915;28;20454;-86
2022/05/29 01:21:05;;;;;;;9.33;2.50;;;;;;;20.69;nan;100931.47;5051697;28;20450;-86
2022/05/29 01:24:01;;;;;;;10.73;2.57;;;;;;;20.66;nan;100931.97;5052986;28;20450;-87
2022/05/29 01:26:58;;;;;;;16.50;3.07;;;;;;;20.65;nan;100940.56;5083641;28;20545;-85
2022/05/29 01:29:53;;;;;;;15.23;2.70;;;;;;;20.63;nan;100931.63;5051623;28;20489;-86
2022/05/29 01:32:38;;;;;;;5.63;2.27;;;;;;;20.51;nan;100919.81;5051633;28;20442;-86
2022/05/29 01:35:43;;;;;;;12.53;3.30;;;;;;;20.55;nan;100927.38;5036957;28;20513;-87
2022/05/29 01:38:16;;;;;;;10.43;2.70;;;;;;;20.53;nan;100925.94;5051236;28;20446;-85
2022/05/29 01:40:52;;;;;;;7.40;2.47;;;;;;;20.54;nan;100922.91;5051654;28;20476;-87
2022/05/29 01:43:29;;;;;;;14.00;2.30;;;;;;;20.53;nan;100921.22;5035504;28;20446;-86
2022/05/29 01:46:07;;;;;;;6.97;2.10;;;;;;;20.51;nan;100912.31;5051579;28;20453;-87
2022/05/29 01:49:02;;;;;;;9.27;2.73;;;;;;;20.53;nan;100920.38;5049992;28;20461;-86
2022/05/29 01:51:49;;;;;;;9.90;2.90;;;;;;;20.51;nan;100912.31;5051351;28;21069;-86
2022/05/29 01:54:37;;;;;;;11.97;3.53;;;;;;;20.50;nan;100913.41;5034931;28;20461;-86
2022/05/29 01:57:09;;;;;;;8.37;2.60;;;;;;;20.46;nan;100911.38;5052537;28;21023;-86
2022/05/29 01:59:41;;;;;;;11.70;3.17;;;;;;;20.44;nan;100913.56;5068439;28;20511;-86
2022/05/29 02:02:10;;;;;;;14.07;2.60;;;;;;;20.44;nan;100908.03;5051450;28;20450;-86
2022/05/29 02:04:41;;;;;;;7.67;2.60;;;;;;;20.45;nan;100913.31;5035092;28;20450;-86
2022/05/29 02:10:20;;;;;;;11.10;2.37;;;;;;;20.48;nan;100901.72;5051353;28;20516;-86
2022/05/29 02:13:14;;;;;;;11.30;2.70;;;;;;;20.48;nan;100900.88;5034968;28;20446;-86
2022/05/29 02:15:47;;;;;;;10.63;2.27;;;;;;;20.46;nan;100898.34;5038295;28;20457;-86
2022/05/29 02:18:32;;;;;;;14.97;3.20;;;;;;;20.44;nan;100894.13;5035241;28;20473;-86
2022/05/29 02:21:04;;;;;;;8.60;3.73;;;;;;;20.39;nan;100883.81;5040014;28;20453;-86
2022/05/29 02:23:41;;;;;;;12.27;3.37;;;;;;;20.39;nan;100894.09;5055185;28;20454;-86
2022/05/29 02:26:10;;;;;;;10.90;2.63;;;;;;;20.40;nan;100888.25;5039836;28;20454;-85
2022/05/29 02:28:40;;;;;;;8.03;2.50;;;;;;;20.38;nan;100879.38;5054908;28;20442;-86
2022/05/29 02:31:28;;;;;;;10.57;2.93;;;;;;;20.37;nan;100877.69;5054941;28;21019;-86
2022/05/29 02:33:59;;;;;;;17.40;2.87;;;;;;;20.34;nan;100869.81;5055005;28;20473;-86
2022/05/29 02:36:49;;;;;;;11.00;2.83;;;;;;;20.35;nan;100872.34;5038648;28;20434;-86
2022/05/29 02:39:43;;;;;;;5.57;1.93;;;;;;;20.35;nan;100877.06;5055994;28;20454;-85
2022/05/29 02:42:49;;;;;;;5.00;2.30;;;;;;;20.32;nan;100875.63;5054945;28;20457;-86
2022/05/29 02:45:38;;;;;;;13.33;2.83;;;;;;;20.34;nan;100880.94;5070192;28;20442;-86
2022/05/29 02:48:16;;;;;;;11.17;2.63;;;;;;;20.32;nan;100877.56;5069835;28;20482;-85
2022/05/29 02:51:08;;;;;;;10.07;2.83;;;;;;;20.31;nan;100868.41;5036131;28;21011;-85
2022/05/29 02:53:38;;;;;;;11.50;2.83;;;;;;;20.30;nan;100861.16;5036813;28;20458;-86
2022/05/29 02:56:05;;;;;;;9.73;2.60;;;;;;;20.27;nan;100855.28;5036247;28;20449;-85
2022/05/29 02:58:33;;;;;;;11.73;2.70;;;;;;;20.23;nan;100848.56;5036954;28;21048;-85
2022/05/29 03:01:16;;;;;;;8.73;2.50;;;;;;;20.29;nan;100859.47;5036511;28;20462;-86
2022/05/29 03:03:50;;;;;;;9.13;2.30;;;;;;;20.30;nan;100852.00;5037066;28;20442;-85
2022/05/29 03:06:22;;;;;;;16.53;3.10;;;;;;;20.24;nan;100841.91;5053203;28;20478;-86
2022/05/29 03:09:02;;;;;;;9.73;2.83;;;;;;;20.28;nan;100840.31;5069826;28;20784;-85
2022/05/29 03:11:41;;;;;;;13.50;2.70;;;;;;;20.26;nan;100837.78;5035527;28;20450;-85
2022/05/29 03:14:32;;;;;;;12.60;2.90;;;;;;;20.29;nan;100839.22;5052481;28;20817;-85
2022/05/29 03:17:32;;;;;;;8.43;2.17;;;;;;;20.21;nan;100820.19;5036472;28;20464;-85
2022/05/29 03:20:13;;;;;;;12.93;2.87;;;;;;;20.28;nan;100829.19;5058370;28;20956;-87
2022/05/29 03:23:02;;;;;;;14.67;2.93;;;;;;;20.28;nan;100823.66;5037642;28;20451;-85
2022/05/29 03:25:37;;;;;;;10.50;2.53;;;;;;;20.24;nan;100828.03;5055322;28;20447;-86
2022/05/29 03:28:27;;;;;;;10.17;2.43;;;;;;;20.22;nan;100821.88;5037736;28;20827;-85
2022/05/29 03:30:55;;;;;;;24.53;2.93;;;;;;;20.21;nan;100817.44;5038783;28;20900;-86
2022/05/29 03:33:22;;;;;;;18.33;2.97;;;;;;;20.21;nan;100818.28;5053849;28;20576;-86
2022/05/29 03:35:53;;;;;;;7.57;2.20;;;;;;;20.21;nan;100815.50;5037304;28;20455;-86
2022/05/29 03:38:22;;;;;;;12.60;2.73;;;;;;;20.21;nan;100818.28;5054880;28;20928;-85
2022/05/29 03:40:51;;;;;;;11.13;3.10;;;;;;;20.19;nan;100801.06;5070476;28;20451;-86
2022/05/29 03:43:18;;;;;;;8.30;2.30;;;;;;;20.11;nan;100792.31;5070369;28;20446;-86
2022/05/29 03:45:46;;;;;;;9.87;2.80;;;;;;;20.20;nan;100804.69;5053711;28;20987;-85
2022/05/29 03:48:14;;;;;;;13.33;2.97;;;;;;;20.15;nan;100794.34;5035125;28;20465;-86
2022/05/29 03:50:41;;;;;;;10.10;2.37;;;;;;;20.22;nan;100802.47;5037316;28;20489;-86
2022/05/29 03:53:09;;;;;;;9.20;2.53;;;;;;;20.20;nan;100799.13;5036719;28;20470;-85
2022/05/29 03:55:36;;;;;;;11.27;2.50;;;;;;;20.19;nan;100803.84;5037098;28;20872;-86
2022/05/29 03:58:04;;;;;;;12.40;3.33;;;;;;;20.21;nan;100800.78;5036823;28;20459;-86
2022/05/29 04:00:31;;;;;;;8.57;2.70;;;;;;;20.20;nan;100799.97;5036858;28;20454;-85
2022/05/29 04:02:59;;;;;;;11.83;3.27;;;;;;;20.15;nan;100790.72;5036805;28;20457;-85
2022/05/29 04:05:27;;;;;;;12.00;3.07;;;;;;;20.19;nan;100800.22;5052884;28;20480;-85
2022/05/29 04:13:28;;;;;;;10.93;3.07;;;;;;;20.21;nan;100809.09;5053121;28;20822;-87
2022/05/29 04:15:56;;;;;;;18.63;3.33;;;;;;;20.19;nan;100803.84;5036461;28;20454;-86
2022/05/29 04:18:23;;;;;;;9.17;3.67;;;;;;;20.20;nan;100801.91;5036114;28;20460;-87
2022/05/29 04:20:52;;;;;;;9.47;2.50;;;;;;;20.22;nan;100814.41;5036425;28;20815;-85
2022/05/29 04:23:20;;;;;;;6.17;2.20;;;;;;;20.19;nan;100808.53;5052792;28;20442;-86
2022/05/29 04:25:48;;;;;;;10.93;2.53;;;;;;;20.23;nan;100812.47;5052670;28;20468;-86
2022/05/29 04:28:15;;;;;;;17.90;2.80;;;;;;;20.23;nan;100823.56;5036488;28;20802;-85
2022/05/29 04:30:43;;;;;;;9.70;2.50;;;;;;;20.22;nan;100813.56;5052658;28;20486;-86
2022/05/29 04:33:11;;;;;;;9.00;2.97;;;;;;;20.22;nan;100819.13;5052614;28;20450;-85
2022/05/29 04:35:41;;;;;;;23.80;3.47;;;;;;;20.24;nan;100822.47;5036211;28;20845;-84
2022/05/29 04:38:09;;;;;;;8.53;2.47;;;;;;;20.23;nan;100820.78;5036269;28;20454;-85
2022/05/29 04:40:38;;;;;;;8.37;2.37;;;;;;;20.20;nan;100824.94;5052431;28;20445;-86
2022/05/29 04:43:06;;;;;;;11.30;2.67;;;;;;;20.22;nan;100824.66;5068878;28;20463;-85
2022/05/29 04:45:34;;;;;;;19.80;2.87;;;;;;;20.19;nan;100819.66;5019753;28;20937;-86
2022/05/29 04:48:01;;;;;;;8.00;2.30;;;;;;;20.22;nan;100827.44;5036016;28;20513;-86
2022/05/29 04:50:28;;;;;;;21.13;3.20;;;;;;;20.23;nan;100829.13;5019486;28;20490;-86
2022/05/29 04:52:56;;;;;;;9.83;2.07;;;;;;;20.22;nan;100827.44;5052103;28;20992;-85
2022/05/29 04:55:23;;;;;;;13.30;2.77;;;;;;;20.14;nan;100811.25;5036187;28;20939;-86
2022/05/29 04:57:51;;;;;;;7.87;2.33;;;;;;;20.21;nan;100820.19;5052330;28;20458;-86
2022/05/29 05:00:18;;;;;;;10.00;3.10;;;;;;;20.19;nan;100823.25;5035833;28;20442;-86
2022/05/29 05:02:46;;;;;;;13.10;3.20;;;;;;;20.09;nan;100809.22;5052129;28;20434;-86
2022/05/29 05:05:14;;;;;;;11.77;3.10;;;;;;;20.20;nan;100821.31;5035357;28;20516;-85
2022/05/29 05:07:42;;;;;;;14.77;3.07;;;;;;;20.20;nan;100818.56;5035481;28;20458;-86
2022/05/29 05:10:11;;;;;;;14.40;3.23;;;;;;;20.17;nan;100821.84;5035510;28;20490;-85
2022/05/29 05:12:39;;;;;;;14.70;2.80;;;;;;;20.15;nan;100818.47;5052493;28;20507;-85
2022/05/29 05:15:07;;;;;;;13.70;2.87;;;;;;;20.14;nan;100817.63;5052034;28;21077;-87
2022/05/29 05:17:35;;;;;;;14.80;2.90;;;;;;;20.13;nan;100813.19;5035370;28;20442;-86
2022/05/29 05:20:04;;;;;;;8.40;2.87;;;;;;;20.17;nan;100816.28;5035610;28;20453;-85
2022/05/29 05:22:32;;;;;;;9.50;2.70;;;;;;;20.16;nan;100818.22;5035401;28;20455;-85
2022/05/29 05:25:01;;;;;;;9.03;2.83;;;;;;;20.17;nan;100813.50;5035332;28;20439;-86
2022/05/29 05:27:28;;;;;;;13.03;3.53;;;;;;;20.18;nan;100809.63;5035251;28;20454;-85
2022/05/29 05:29:55;;;;;;;9.60;2.50;;;;;;;20.18;nan;100806.88;5035322;28;20485;-86
2022/05/29 05:32:23;;;;;;;13.93;2.60;;;;;;;20.13;nan;100806.78;5051831;28;20446;-86
2022/05/29 05:34:50;;;;;;;12.00;2.53;;;;;;;20.20;nan;100815.78;5035346;28;20446;-86
2022/05/29 05:37:18;;;;;;;14.53;3.30;;;;;;;20.19;nan;100819.66;5052091;28;20450;-86
2022/05/29 05:39:47;;;;;;;11.20;2.87;;;;;;;20.18;nan;100817.97;5035197;28;20458;-86
2022/05/29 05:42:15;;;;;;;8.80;2.50;;;;;;;20.18;nan;100821.59;5051442;28;20454;-86
2022/05/29 05:44:42;;;;;;;11.53;2.43;;;;;;;20.18;nan;100817.97;5035396;28;20457;-85
2022/05/29 05:47:10;;;;;;;12.23;2.67;;;;;;;20.07;nan;100811.41;5051740;28;20794;-86
2022/05/29 05:49:38;;;;;;;13.10;2.70;;;;;;;20.17;nan;100821.84;5033557;28;20462;-85
2022/05/29 05:52:06;;;;;;;11.83;2.20;;;;;;;20.18;nan;100835.47;5051695;28;20471;-86
2022/05/29 05:54:34;;;;;;;16.80;3.10;;;;;;;20.17;nan;100830.16;5070125;28;20458;-86
2022/05/29 05:57:03;;;;;;;14.90;3.20;;;;;;;20.19;nan;100837.16;5055493;28;20482;-86
2022/05/29 05:59:30;;;;;;;12.47;3.20;;;;;;;20.19;nan;100837.16;5071882;28;20472;-86
2022/05/29 06:01:58;;;;;;;6.27;2.60;;;;;;;20.19;nan;100833.53;5071893;28;20446;-86
2022/05/29 06:04:26;;;;;;;14.90;2.93;;;;;;;20.16;nan;100831.25;5071934;28;20446;-85
2022/05/29 06:06:54;;;;;;;9.33;2.50;;;;;;;20.19;nan;100837.16;5055432;28;20929;-85
2022/05/29 06:09:22;;;;;;;10.40;2.60;;;;;;;20.18;nan;100834.63;5071965;28;20932;-86
2022/05/29 06:11:50;;;;;;;15.03;2.90;;;;;;;20.15;nan;100830.41;5055178;28;20494;-85
2022/05/29 06:14:17;;;;;;;9.10;2.53;;;;;;;20.17;nan;100830.16;5055269;28;20454;-85
2022/05/29 06:16:45;;;;;;;9.50;3.07;;;;;;;20.21;nan;100837.69;5055088;28;20860;-86
2022/05/29 06:19:13;;;;;;;11.47;2.77;;;;;;;20.24;nan;100836.34;5055017;28;20450;-86
2022/05/29 06:21:40;;;;;;;15.07;2.97;;;;;;;20.24;nan;100836.34;5055192;28;20469;-85
2022/05/29 06:24:08;;;;;;;18.77;3.27;;;;;;;20.27;nan;100838.63;5054751;28;20524;-86
2022/05/29 06:26:35;;;;;;;11.60;3.43;;;;;;;20.26;nan;100832.22;5055068;28;20504;-86
2022/05/29 06:29:03;;;;;;;15.67;3.67;;;;;;;20.30;nan;100833.41;5071391;28;20446;-86
2022/05/29 06:31:31;;;;;;;11.67;2.50;;;;;;;20.32;nan;100839.53;5054752;28;20530;-85
2022/05/29 06:33:58;;;;;;;7.50;3.03;;;;;;;20.31;nan;100835.09;5071107;28;20827;-85
2022/05/29 06:36:26;;;;;;;16.63;3.30;;;;;;;20.32;nan;100841.47;5054882;28;21014;-86
2022/05/29 06:38:55;;;;;;;13.63;2.77;;;;;;;20.36;nan;100848.22;5054822;28;20519;-86
2022/05/29 06:41:23;;;;;;;11.83;2.93;;;;;;;20.41;nan;100845.50;5071358;28;20446;-85
2022/05/29 06:43:51;;;;;;;9.20;2.73;;;;;;;20.42;nan;100840.78;5071106;28;20434;-86
2022/05/29 06:46:20;;;;;;;7.07;2.83;;;;;;;20.45;nan;100834.75;5087720;28;20442;-85
2022/05/29 06:48:47;;;;;;;9.50;2.80;;;;;;;20.47;nan;100832.53;5071337;28;20449;-86
2022/05/29 06:51:19;;;;;;;9.60;2.30;;;;;;;20.50;nan;100834.81;5032907;28;20506;-86
2022/05/29 06:53:49;;;;;;;9.70;2.90;;;;;;;20.53;nan;100831.53;5017603;28;20451;-85
2022/05/29 06:56:17;;;;;;;10.13;3.60;;;;;;;20.62;nan;100835.53;5033420;28;20451;-86
2022/05/29 06:58:45;;;;;;;19.70;4.50;;;;;;;20.66;nan;100837.53;5033501;28;20944;-86
2022/05/29 07:06:59;;;;;;;8.20;2.63;;;;;;;20.78;nan;100844.91;5033184;28;20451;-86
2022/05/29 07:09:36;;;;;;;8.57;2.40;;;;;;;20.84;nan;100843.84;5033200;28;20467;-85
2022/05/29 07:12:11;;;;;;;8.10;2.63;;;;;;;20.80;nan;100826.84;5032794;28;20487;-85
2022/05/29 07:15:02;;;;;;;15.03;3.23;;;;;;;20.95;nan;100842.91;5032611;28;20454;-85
2022/05/29 07:17:30;;;;;;;15.37;3.93;;;;;;;21.02;nan;100846.28;5067183;28;20524;-85
2022/05/29 07:19:58;;;;;;;6.47;2.83;;;;;;;21.08;nan;100839.69;5054197;28;20446;-85
2022/05/29 07:22:30;;;;;;;8.13;2.73;;;;;;;21.11;nan;100849.47;5053723;28;21070;-85
2022/05/29 07:24:58;;;;;;;13.30;2.87;;;;;;;21.15;nan;100848.69;5070250;28;20464;-85
2022/05/29 07:27:26;;;;;;;15.33;2.60;;;;;;;21.17;nan;100843.66;5054068;28;20450;-86
2022/05/29 07:29:53;;;;;;;6.03;2.10;;;;;;;21.22;nan;100845.72;5053799;28;20477;-86
2022/05/29 07:32:23;;;;;;;9.50;2.10;;;;;;;21.30;nan;100848.88;5070095;28;20490;-85
2022/05/29 07:34:52;;;;;;;7.73;2.23;;;;;;;21.35;nan;100848.09;5053654;28;20974;-86
2022/05/29 07:37:21;;;;;;;11.73;3.47;;;;;;;21.41;nan;100848.97;5070340;28;20948;-85
2022/05/29 07:39:50;;;;;;;9.73;2.50;;;;;;;21.43;nan;100852.31;5053635;28;20447;-85
2022/05/29 07:45:05;;;;;;;11.43;3.10;;;;;;;21.40;nan;100848.13;5067778;28;20453;-85
2022/05/29 07:47:38;;;;;;;7.10;2.40;;;;;;;21.43;nan;100847.59;5069867;28;20487;-86
2022/05/29 07:50:07;;;;;;;10.30;2.87;;;;;;;21.41;nan;100846.19;5047443;28;20969;-87
2022/05/29 07:52:35;;;;;;;10.03;2.60;;;;;;;21.41;nan;100847.03;5053113;28;20486;-87
2022/05/29 07:55:03;;;;;;;15.40;2.40;;;;;;;21.47;nan;100856.25;5069695;28;20457;-86
2022/05/29 07:57:31;;;;;;;9.43;2.57;;;;;;;21.37;nan;100835.56;5069641;28;21006;-86
2022/05/29 07:59:58;;;;;;;10.73;2.80;;;;;;;21.48;nan;100857.94;5069865;28;20488;-87
2022/05/29 08:02:26;;;;;;;6.50;2.80;;;;;;;21.48;nan;100833.75;5069660;28;20508;-86
2022/05/29 08:04:59;;;;;;;7.80;2.40;;;;;;;21.63;nan;100855.28;4973375;28;20469;-86
2022/05/29 08:07:27;;;;;;;9.73;1.93;;;;;;;21.59;nan;100841.06;4972872;28;20454;-85
2022/05/29 08:09:54;;;;;;;8.67;2.90;;;;;;;21.75;nan;100853.16;4973484;28;20455;-86
2022/05/29 08:12:23;;;;;;;8.83;2.50;;;;;;;21.77;nan;100853.75;4973252;28;20485;-86
2022/05/29 08:14:55;;;;;;;12.10;2.83;;;;;;;21.78;nan;100849.84;4958075;28;20968;-86
2022/05/29 08:17:23;;;;;;;9.90;2.70;;;;;;;21.80;nan;100847.66;4988654;28;20496;-86
2022/05/29 08:19:51;;;;;;;14.70;2.73;;;;;;;21.76;nan;100838.16;4973343;28;20952;-86
2022/05/29 08:22:19;;;;;;;14.50;3.10;;;;;;;21.86;nan;100851.31;4972261;28;20454;-86
2022/05/29 08:33:15;;;;;;;13.97;3.20;;;;;;;22.18;nan;100854.09;5066565;28;20975;-85
2022/05/29 08:35:44;;;;;;;8.83;2.80;;;;;;;22.26;nan;100845.25;5068682;28;21003;-86
2022/05/29 08:38:11;;;;;;;9.30;2.27;;;;;;;22.36;nan;100862.84;5068825;28;20450;-86
2022/05/29 08:40:44;;;;;;;9.73;2.67;;;;;;;22.41;nan;100859.25;5052548;28;20519;-86
2022/05/29 08:43:27;;;;;;;10.97;2.83;;;;;;;22.50;nan;100851.25;5068390;28;20458;-86
2022/05/29 08:45:55;;;;;;;9.80;1.60;;;;;;;22.62;nan;100858.25;5082631;28;20438;-86
2022/05/29 08:48:24;;;;;;;9.70;3.37;;;;;;;22.68;nan;100871.13;5068939;28;20446;-85
2022/05/29 08:51:07;;;;;;;8.57;2.53;;;;;;;22.68;nan;100868.34;5052270;28;20482;-85
2022/05/29 08:53:49;;;;;;;15.97;3.13;;;;;;;22.65;nan;100857.72;5066950;28;20454;-85
2022/05/29 08:56:38;;;;;;;12.90;2.70;;;;;;;22.70;nan;100870.84;5067777;28;20450;-85
2022/05/29 08:59:15;;;;;;;9.40;2.83;;;;;;;22.64;nan;100872.75;5051660;28;20523;-87
2022/05/29 09:02:07;;;;;;;3.53;1.73;;;;;;;22.68;nan;100871.13;5051251;28;20932;-85
2022/05/29 09:04:40;;;;;;;5.30;1.77;;;;;;;22.73;nan;100873.91;5053236;28;20443;-85
2022/05/29 09:07:08;;;;;;;6.23;2.17;;;;;;;22.81;nan;100874.53;5051517;28;20458;-85
2022/05/29 09:09:42;;;;;;;7.97;2.23;;;;;;;22.96;nan;100867.06;5068332;28;20458;-86
2022/05/29 09:12:22;;;;;;;7.30;2.73;;;;;;;23.06;nan;100880.22;5051492;28;20493;-90
2022/05/29 09:15:04;;;;;;;7.23;2.33;;;;;;;23.14;nan;100870.47;5051322;28;20442;-85
2022/05/29 09:18:00;;;;;;;8.50;2.40;;;;;;;23.25;nan;100861.03;5067106;28;20893;-84
2022/05/29 09:20:35;;;;;;;4.70;1.77;;;;;;;23.39;nan;100867.75;5036057;28;20454;-84
2022/05/29 09:23:03;;;;;;;6.83;2.53;;;;;;;23.47;nan;100867.22;5052104;28;20458;-85
2022/05/29 09:25:39;;;;;;;9.30;1.77;;;;;;;23.50;nan;100854.66;5068252;28;20454;-84
2022/05/29 09:28:31;;;;;;;6.80;2.33;;;;;;;23.48;nan;100863.31;5051396;28;20452;-84
2022/05/29 09:31:16;;;;;;;12.70;2.30;;;;;;;23.40;nan;100856.34;5064697;28;20454;-85
2022/05/29 09:33:44;;;;;;;8.70;2.30;;;;;;;23.35;nan;100845.16;5067261;28;20455;-85
2022/05/29 09:36:51;;;;;;;14.80;2.37;;;;;;;23.47;nan;100871.97;5084924;28;20813;-85
2022/05/29 09:39:30;;;;;;;7.90;2.20;;;;;;;23.48;nan;100862.47;5052737;28;20454;-84
2022/05/29 10:09:24;;;;;;;10.50;2.63;;;;;;;24.78;nan;100835.56;5013641;28;21029;-90
2022/05/29 10:12:20;;;;;;;11.23;2.10;;;;;;;24.98;nan;100848.66;5031778;28;20497;-89
2022/05/29 10:19:25;;;;;;;7.60;1.93;;;;;;;25.16;nan;100844.34;5033381;28;20446;-91
2022/05/29 10:21:53;;;;;;;6.20;1.80;;;;;;;25.11;nan;100833.19;5033047;28;20451;-88
2022/05/29 10:24:28;;;;;;;4.37;1.80;;;;;;;25.16;nan;100833.16;5031403;28;20459;-87
2022/05/29 10:26:57;;;;;;;10.00;2.07;;;;;;;25.17;nan;100829.25;5031047;28;20462;-87
2022/05/29 10:29:29;;;;;;;6.00;1.90;;;;;;;25.43;nan;100833.53;5030905;28;20451;-89
2022/05/29 10:31:56;;;;;;;8.87;1.87;;;;;;;25.76;nan;100836.69;5047869;28;20475;-86
2022/05/29 10:34:36;;;;;;;6.47;2.03;;;;;;;26.00;nan;100831.13;5031430;28;20443;-87
2022/05/29 10:37:39;;;;;;;8.43;2.27;;;;;;;26.15;nan;100840.25;5030727;28;20816;-87
2022/05/29 10:40:12;;;;;;;6.93;2.40;;;;;;;26.04;nan;100841.47;5033440;28;20801;-87
2022/05/29 10:42:45;;;;;;;5.77;1.80;;;;;;;25.93;nan;100837.09;5034765;28;20450;-86
2022/05/29 10:45:24;;;;;;;7.77;2.40;;;;;;;25.89;nan;100852.81;5034658;28;20462;-87
2022/05/29 10:47:55;;;;;;;8.00;2.17;;;;;;;25.85;nan;100848.91;5051004;28;20455;-87
2022/05/29 10:50:59;;;;;;;14.43;2.10;;;;;;;25.96;nan;100861.72;5034558;28;20443;-88
2022/05/29 10:53:32;;;;;;;6.60;2.13;;;;;;;26.19;nan;100850.84;5034361;28;20972;-87
2022/05/29 10:56:12;;;;;;;7.20;1.97;;;;;;;26.47;nan;100850.84;5051234;28;20450;-87
2022/05/29 10:59:21;;;;;;;11.17;2.40;;;;;;;26.55;nan;100848.56;5067061;28;20450;-87
2022/05/29 11:05:50;;;;;;;6.33;1.90;;;;;;;26.45;nan;100860.69;5053418;28;20806;-87
2022/05/29 11:08:32;;;;;;;7.53;2.40;;;;;;;26.53;nan;100857.25;4977913;28;20456;-87
2022/05/29 11:11:32;;;;;;;7.20;2.50;;;;;;;26.62;nan;100866.66;4993893;28;20476;-87
2022/05/29 11:14:12;;;;;;;6.73;2.10;;;;;;;26.72;nan;100858.16;4993950;28;20453;-87
2022/05/29 11:17:15;;;;;;;12.10;2.43;;;;;;;26.86;nan;100858.25;4993880;28;20459;-87
2022/05/29 11:20:16;;;;;;;7.40;2.00;;;;;;;27.20;nan;100860.91;4977919;28;20841;-87
2022/05/29 11:22:56;;;;;;;9.83;2.17;;;;;;;27.39;nan;100852.50;4976690;28;20453;-87
2022/05/29 11:25:45;;;;;;;8.57;2.40;;;;;;;27.26;nan;100854.09;4977628;28;20452;-86
2022/05/29 11:28:42;;;;;;;12.63;1.83;;;;;;;27.14;nan;100859.31;4993643;28;20793;-87
2022/05/29 11:31:20;;;;;;;4.83;1.60;;;;;;;27.13;nan;100860.47;4974405;28;20449;-88
2022/05/29 11:34:12;;;;;;;8.70;2.33;;;;;;;27.14;nan;100853.69;4955476;28;20455;-88
2022/05/29 11:36:57;;;;;;;7.10;2.73;;;;;;;27.15;nan;100860.97;4952264;28;20447;-86
2022/05/29 11:39:28;;;;;;;6.67;1.73;;;;;;;27.20;nan;100869.34;4955184;29;20446;-89
2022/05/29 11:42:11;;;;;;;4.53;2.80;;;;;;;27.26;nan;100854.09;4939657;29;20459;-89
2022/05/29 11:44:59;;;;;;;10.07;2.33;;;;;;;27.30;nan;100866.41;4984728;28;20453;-88
2022/05/29 11:53:49;;;;;;;8.20;2.80;;;;;;;27.18;nan;100868.78;5006563;28;20492;-95
2022/05/29 11:56:26;;;;;;;6.57;1.70;;;;;;;27.08;nan;100863.34;4993795;28;20460;-90
2022/05/29 12:02:49;;;;;;;9.57;2.80;;;;;;;27.17;nan;100861.50;4994722;28;20528;-91
2022/05/29 12:05:36;;;;;;;7.67;2.20;;;;;;;27.25;nan;100845.97;4994652;28;20527;-93
2022/05/29 12:08:38;;;;;;;6.97;2.27;;;;;;;27.40;nan;100857.81;4966077;28;20450;-91
2022/05/29 12:11:33;;;;;;;9.90;2.67;;;;;;;27.34;nan;100864.63;4988154;28;20901;-90
2022/05/29 12:14:05;;;;;;;7.90;2.20;;;;;;;27.31;nan;100856.84;4959646;28;20450;-92
2022/05/29 12:16:36;;;;;;;9.30;1.80;;;;;;;27.19;nan;100859.25;4990760;28;20450;-91
2022/05/29 12:19:28;;;;;;;6.60;1.80;;;;;;;27.19;nan;100853.63;4974226;28;20457;-91
2022/05/29 12:22:07;;;;;;;5.03;1.90;;;;;;;27.14;nan;100850.88;4985612;28;21031;-91
2022/05/29 12:24:41;;;;;;;7.83;2.10;;;;;;;27.20;nan;100835.66;4974132;28;20453;-91
2022/05/29 12:27:16;;;;;;;6.53;2.40;;;;;;;27.63;nan;100835.59;5012588;28;20479;-91
2022/05/29 12:29:49;;;;;;;9.33;2.80;;;;;;;28.04;nan;100821.69;5034197;28;20484;-91
2022/05/29 12:32:31;;;;;;;5.20;1.87;;;;;;;28.44;nan;100823.78;5034020;28;20886;-91
2022/05/29 12:35:23;;;;;;;6.63;2.10;;;;;;;28.72;nan;100826.56;5018081;28;20945;-92
2022/05/29 12:38:07;;;;;;;5.30;1.67;;;;;;;28.61;nan;100822.31;5033706;28;20451;-91
2022/05/29 12:40:54;;;;;;;3.47;1.37;;;;;;;28.61;nan;100837.22;5051954;28;20440;-92
2022/05/29 12:43:45;;;;;;;6.10;1.47;;;;;;;28.51;nan;100840.22;5066489;28;20454;-91
2022/05/29 12:46:28;;;;;;;7.13;1.40;;;;;;;28.34;nan;100840.81;5066528;28;20459;-91
2022/05/29 12:49:36;;;;;;;7.50;2.30;;;;;;;28.18;nan;100845.03;5066181;28;20501;-91
2022/05/29 12:52:22;;;;;;;6.77;1.63;;;;;;;28.05;nan;100826.16;5033258;28;20483;-92
2022/05/29 12:55:37;;;;;;;12.17;1.60;;;;;;;27.86;nan;100826.22;5050186;28;20454;-93
2022/05/29 12:58:55;;;;;;;8.20;2.30;;;;;;;27.81;nan;100837.53;5029201;28;20452;-91
2022/05/29 13:01:35;;;;;;;6.77;2.17;;;;;;;27.70;nan;100834.09;5029296;28;20513;-92
2022/05/29 13:04:33;;;;;;;8.60;2.13;;;;;;;27.58;nan;100828.09;4996616;28;20452;-92
2022/05/29 13:07:27;;;;;;;8.43;2.10;;;;;;;27.47;nan;100835.81;4996367;28;20452;-91
2022/05/29 13:10:00;;;;;;;11.50;2.30;;;;;;;27.34;nan;100832.91;5011906;28;20476;-92
2022/05/29 13:12:49;;;;;;;6.10;1.60;;;;;;;27.25;nan;100827.16;5012610;28;20534;-91
2022/05/29 13:15:30;;;;;;;5.77;2.33;;;;;;;27.32;nan;100819.22;4996845;28;20440;-92
2022/05/29 13:21:20;;;;;;;8.23;2.50;;;;;;;28.00;nan;100823.44;5012866;28;20460;-92
2022/05/29 13:24:14;;;;;;;6.70;2.50;;;;;;;28.07;nan;100813.47;5012722;28;20452;-92
2022/05/29 13:27:22;;;;;;;8.43;1.97;;;;;;;28.24;nan;100834.56;4996588;28;20444;-92
2022/05/29 13:29:54;;;;;;;5.43;2.00;;;;;;;28.14;nan;100827.94;5028986;28;20440;-92
2022/05/29 13:32:34;;;;;;;5.37;1.80;;;;;;;28.11;nan;100822.09;4997012;28;20479;-92
2022/05/29 13:35:04;;;;;;;3.20;1.97;;;;;;;28.14;nan;100825.13;5013144;28;20973;-93